Time;durP1;ratioP1;P1;durP2;ratioP2;P2;SDS_P1;SDS_P2;PMS_P1;PMS_P2;Temp;Humidity;BMP_temperature;BMP_pressure;BME280_temperature;BME280_humidity;BME280_pressure;Samples;Min_cycle;Max_cycle;Signal;HPM_P1;HPM_P2
2024/01/08 00:02:44;;;;;;;26.60;13.90;;;;;;;-8.57;100.00;99347.27;135242;1278;22614;-81
2024/01/08 00:05:47;;;;;;;31.60;16.20;;;;;;;-8.58;100.00;99351.41;135253;1257;23029;-81
2024/01/08 00:08:49;;;;;;;39.60;16.40;;;;;;;-8.54;100.00;99353.23;135192;1278;22752;-82
2024/01/08 00:11:52;;;;;;;34.80;14.80;;;;;;;-8.52;100.00;99356.99;135198;1257;22948;-81
2024/01/08 00:14:54;;;;;;;40.70;17.60;;;;;;;-8.45;100.00;99357.83;135167;1278;22638;-81
2024/01/08 00:17:57;;;;;;;29.50;15.20;;;;;;;-8.36;100.00;99356.98;135179;1278;26067;-81
2024/01/08 00:21:02;;;;;;;34.20;16.90;;;;;;;-8.37;100.00;99359.28;135193;1278;22568;-81
2024/01/08 00:24:05;;;;;;;39.10;17.30;;;;;;;-8.40;100.00;99364.56;135215;1278;22658;-81
2024/01/08 00:27:07;;;;;;;41.50;17.80;;;;;;;-8.43;100.00;99360.71;135201;1278;22565;-81
2024/01/08 00:30:09;;;;;;;35.80;17.40;;;;;;;-8.42;100.00;99363.36;135159;1278;22596;-81
2024/01/08 00:33:12;;;;;;;37.70;15.30;;;;;;;-8.39;100.00;99366.65;135210;1278;22615;-81
2024/01/08 00:36:14;;;;;;;33.20;15.70;;;;;;;-8.45;100.00;99365.57;135192;1257;22782;-82
2024/01/08 00:39:17;;;;;;;32.40;15.90;;;;;;;-8.48;100.00;99367.85;135232;1278;24206;-82
2024/01/08 00:42:19;;;;;;;29.30;14.30;;;;;;;-8.43;100.00;99374.53;135155;1278;22626;-82
2024/01/08 00:45:22;;;;;;;35.70;14.80;;;;;;;-8.39;100.00;99381.48;135169;1257;25034;-82
2024/01/08 00:48:24;;;;;;;34.70;15.90;;;;;;;-8.41;100.00;99388.25;135170;1278;25731;-81
2024/01/08 00:51:27;;;;;;;32.00;13.70;;;;;;;-8.46;100.00;99393.36;135111;1278;22578;-81
2024/01/08 00:54:29;;;;;;;33.40;15.60;;;;;;;-8.51;100.00;99399.96;135122;1278;22639;-82
2024/01/08 00:57:32;;;;;;;33.50;15.20;;;;;;;-8.53;100.00;99400.15;135178;1278;22576;-81
2024/01/08 01:00:34;;;;;;;30.40;13.50;;;;;;;-8.51;100.00;99390.73;135135;1278;26007;-81
2024/01/08 01:03:37;;;;;;;30.40;15.10;;;;;;;-8.52;100.00;99394.34;135145;1278;24903;-81
2024/01/08 01:06:39;;;;;;;31.10;14.10;;;;;;;-8.51;100.00;99395.73;135172;1278;22566;-81
2024/01/08 01:09:42;;;;;;;36.80;16.10;;;;;;;-8.53;100.00;99402.17;135143;1278;22720;-81
2024/01/08 01:12:44;;;;;;;30.40;14.90;;;;;;;-8.57;100.00;99402.90;135149;1278;22597;-82
2024/01/08 01:15:47;;;;;;;29.10;14.40;;;;;;;-8.64;100.00;99402.42;135211;1278;22616;-82
2024/01/08 01:18:49;;;;;;;32.60;14.70;;;;;;;-8.65;100.00;99404.03;135177;1277;22634;-82
2024/01/08 01:21:51;;;;;;;30.90;15.40;;;;;;;-8.67;100.00;99403.64;135198;1278;22800;-81
2024/01/08 01:24:54;;;;;;;32.50;14.60;;;;;;;-8.64;100.00;99407.95;135187;1278;26705;-81
2024/01/08 01:27:56;;;;;;;29.90;14.10;;;;;;;-8.59;100.00;99409.70;135201;1278;22541;-81
2024/01/08 01:31:03;;;;;;;35.50;14.60;;;;;;;-8.51;100.00;99420.22;135240;1278;22697;-81
2024/01/08 01:34:06;;;;;;;30.00;15.40;;;;;;;-8.53;100.00;99418.83;135173;1278;22572;-80
2024/01/08 01:37:10;;;;;;;34.50;16.40;;;;;;;-8.58;100.00;99423.06;135144;1263;22629;-80
2024/01/08 01:40:12;;;;;;;33.50;16.50;;;;;;;-8.60;100.00;99427.77;135099;1279;22626;-81
2024/01/08 01:43:15;;;;;;;34.90;15.90;;;;;;;-8.56;100.00;99430.17;135146;1278;22610;-81
2024/01/08 01:46:17;;;;;;;32.10;16.00;;;;;;;-8.59;100.00;99433.61;135173;1278;22572;-81
2024/01/08 01:49:20;;;;;;;34.30;16.20;;;;;;;-8.65;100.00;99432.36;135375;1278;22678;-81
2024/01/08 01:52:23;;;;;;;34.80;15.70;;;;;;;-8.66;100.00;99431.23;136574;1278;22682;-81
2024/01/08 01:55:25;;;;;;;34.70;17.20;;;;;;;-8.66;100.00;99432.79;136181;1279;24266;-80
2024/01/08 01:58:28;;;;;;;37.30;17.30;;;;;;;-8.62;100.00;99433.35;136095;1278;22572;-81
2024/01/08 02:01:30;;;;;;;35.90;16.00;;;;;;;-8.60;100.00;99435.85;135543;1278;25428;-80
2024/01/08 02:04:32;;;;;;;37.40;17.40;;;;;;;-8.66;100.00;99437.63;135179;1278;22722;-80
2024/01/08 02:07:35;;;;;;;32.70;15.00;;;;;;;-8.65;100.00;99441.94;135207;1278;25473;-81
2024/01/08 02:10:40;;;;;;;34.20;15.30;;;;;;;-8.65;100.00;99445.67;135152;1257;22906;-81
2024/01/08 02:13:42;;;;;;;33.70;14.90;;;;;;;-8.72;100.00;99448.55;135181;1278;22546;-81
2024/01/08 02:16:45;;;;;;;33.90;14.20;;;;;;;-8.72;100.00;99449.23;135150;1278;22675;-81
2024/01/08 02:19:47;;;;;;;34.10;15.10;;;;;;;-8.66;100.00;99445.46;135177;1278;22629;-80
2024/01/08 02:22:50;;;;;;;32.20;15.90;;;;;;;-8.64;100.00;99451.69;135155;1275;22691;-81
2024/01/08 02:25:52;;;;;;;31.90;15.60;;;;;;;-8.58;100.00;99452.77;135177;1257;22847;-81
2024/01/08 02:28:54;;;;;;;34.00;14.40;;;;;;;-8.48;100.00;99451.01;135219;1278;25582;-81
2024/01/08 02:31:57;;;;;;;31.80;15.30;;;;;;;-8.43;100.00;99451.40;135178;1278;26023;-80
2024/01/08 02:34:59;;;;;;;34.70;15.70;;;;;;;-8.45;100.00;99454.52;135204;1278;22654;-81
2024/01/08 02:38:02;;;;;;;26.40;12.80;;;;;;;-8.47;100.00;99455.41;135224;1278;22600;-81
2024/01/08 02:41:04;;;;;;;25.30;12.70;;;;;;;-8.47;100.00;99452.85;135214;1278;25446;-81
2024/01/08 02:44:09;;;;;;;30.70;14.00;;;;;;;-8.47;100.00;99454.39;135206;1278;22554;-82
2024/01/08 02:47:11;;;;;;;30.20;13.70;;;;;;;-8.51;100.00;99456.28;135224;1255;22582;-82
2024/01/08 02:50:14;;;;;;;29.00;13.10;;;;;;;-8.61;100.00;99457.94;135234;1278;25715;-81
2024/01/08 02:53:16;;;;;;;25.70;13.60;;;;;;;-8.59;100.00;99456.17;135204;1278;22629;-82
2024/01/08 02:56:19;;;;;;;23.90;11.80;;;;;;;-8.56;100.00;99456.89;135181;1278;22548;-81
2024/01/08 02:59:22;;;;;;;28.60;14.60;;;;;;;-8.48;100.00;99454.79;135191;1278;25499;-81
2024/01/08 03:02:24;;;;;;;26.10;12.70;;;;;;;-8.45;100.00;99457.42;135208;1278;22590;-81
2024/01/08 03:05:27;;;;;;;26.80;12.70;;;;;;;-8.40;100.00;99459.95;135179;1278;24179;-82
2024/01/08 03:08:29;;;;;;;31.00;13.20;;;;;;;-8.40;100.00;99463.34;135188;1278;22614;-82
2024/01/08 03:11:32;;;;;;;26.10;12.30;;;;;;;-8.41;100.00;99470.25;135207;1278;22800;-81
2024/01/08 03:14:34;;;;;;;32.00;14.30;;;;;;;-8.39;100.00;99472.98;135209;1278;22568;-81
2024/01/08 03:17:36;;;;;;;19.60;10.40;;;;;;;-8.33;100.00;99476.24;135249;1278;23518;-82
2024/01/08 03:20:39;;;;;;;27.10;13.00;;;;;;;-8.13;100.00;99471.17;135134;1278;26325;-83
2024/01/08 03:23:41;;;;;;;29.20;13.60;;;;;;;-7.75;100.00;99475.82;135205;1278;24304;-81
2024/01/08 03:26:44;;;;;;;31.00;15.30;;;;;;;-7.89;100.00;99479.85;135161;1278;22696;-81
2024/01/08 03:29:46;;;;;;;32.20;14.20;;;;;;;-8.07;100.00;99488.35;135165;1275;22652;-81
2024/01/08 03:32:49;;;;;;;34.40;15.40;;;;;;;-8.24;100.00;99492.82;135202;1278;22608;-81
2024/01/08 03:35:51;;;;;;;32.10;14.90;;;;;;;-8.36;100.00;99491.50;135179;1278;24686;-81
2024/01/08 03:38:53;;;;;;;34.30;15.40;;;;;;;-8.41;100.00;99490.90;135180;1278;22562;-82
2024/01/08 03:41:56;;;;;;;34.80;15.60;;;;;;;-8.44;100.00;99492.16;135204;1278;24176;-81
2024/01/08 03:44:59;;;;;;;31.70;15.40;;;;;;;-8.51;100.00;99494.35;135251;1278;24899;-80
2024/01/08 03:48:01;;;;;;;29.00;14.10;;;;;;;-8.54;100.00;99494.17;135582;1278;22655;-81
2024/01/08 03:51:03;;;;;;;31.00;14.60;;;;;;;-8.51;100.00;99501.02;136417;1278;22603;-80
2024/01/08 03:54:07;;;;;;;33.30;14.90;;;;;;;-8.50;100.00;99502.98;136360;1278;22570;-79
2024/01/08 03:57:10;;;;;;;30.00;13.50;;;;;;;-8.50;100.00;99504.56;136271;1276;23060;-80
2024/01/08 04:00:12;;;;;;;28.20;14.30;;;;;;;-8.46;100.00;99508.42;135760;1278;23365;-79
2024/01/08 04:03:15;;;;;;;32.60;16.00;;;;;;;-8.45;100.00;99514.95;135422;1278;22709;-79
2024/01/08 04:06:17;;;;;;;34.40;15.00;;;;;;;-8.43;100.00;99520.06;135339;1260;22966;-80
2024/01/08 04:09:20;;;;;;;29.10;14.00;;;;;;;-8.44;100.00;99527.07;135141;1278;22596;-77
2024/01/08 04:12:22;;;;;;;30.90;16.50;;;;;;;-8.54;100.00;99533.98;135097;1278;22659;-81
2024/01/08 04:15:25;;;;;;;30.70;14.30;;;;;;;-8.56;100.00;99537.50;135169;1278;24218;-81
2024/01/08 04:18:27;;;;;;;26.40;14.80;;;;;;;-8.60;100.00;99544.38;135159;1278;22641;-78
2024/01/08 04:21:30;;;;;;;26.10;12.40;;;;;;;-8.65;100.00;99549.98;135080;1278;22548;-78
2024/01/08 04:24:32;;;;;;;27.50;13.60;;;;;;;-8.67;100.00;99549.93;135021;1278;22812;-81
2024/01/08 04:27:34;;;;;;;30.40;12.90;;;;;;;-8.65;100.00;99554.48;135105;1278;22621;-81
2024/01/08 04:30:37;;;;;;;28.60;14.50;;;;;;;-8.65;100.00;99561.48;135141;1278;22697;-80
2024/01/08 04:33:39;;;;;;;26.50;13.20;;;;;;;-8.35;100.00;99555.69;135109;1278;22725;-79
2024/01/08 04:36:42;;;;;;;24.80;12.60;;;;;;;-7.24;100.00;99550.31;134992;1278;22620;-80
2024/01/08 04:39:45;;;;;;;26.50;13.20;;;;;;;-6.91;100.00;99552.66;134845;1278;22592;-80
2024/01/08 04:42:47;;;;;;;26.90;13.80;;;;;;;-7.03;100.00;99554.48;134890;1278;22615;-80
2024/01/08 04:45:50;;;;;;;60.90;22.20;;;;;;;-7.11;100.00;99558.45;134868;1278;22632;-81
2024/01/08 04:48:52;;;;;;;31.10;14.30;;;;;;;-7.20;100.00;99565.62;134824;1278;24235;-80
2024/01/08 04:51:55;;;;;;;24.60;13.70;;;;;;;-7.40;100.00;99570.47;134552;1278;22598;-80
2024/01/08 04:54:58;;;;;;;26.80;13.90;;;;;;;-7.72;100.00;99572.95;134607;1278;22624;-80
2024/01/08 04:58:00;;;;;;;29.40;13.80;;;;;;;-7.87;100.00;99574.89;134710;1278;22702;-81
2024/01/08 05:01:03;;;;;;;29.00;13.30;;;;;;;-8.00;100.00;99579.06;134805;1276;22627;-79
2024/01/08 05:04:05;;;;;;;23.70;12.20;;;;;;;-8.11;100.00;99581.32;134699;1278;22720;-80
2024/01/08 05:07:08;;;;;;;28.70;13.80;;;;;;;-8.13;100.00;99585.67;134954;1278;22596;-80
2024/01/08 05:10:13;;;;;;;21.90;12.70;;;;;;;-8.22;100.00;99587.69;134959;1278;22611;-81
2024/01/08 05:13:15;;;;;;;27.60;13.50;;;;;;;-8.31;100.00;99589.23;134933;1278;22567;-80
2024/01/08 05:16:18;;;;;;;38.10;15.00;;;;;;;-8.37;100.00;99595.13;134798;1278;24226;-80
2024/01/08 05:19:20;;;;;;;61.30;30.80;;;;;;;-8.39;100.00;99597.42;134779;1278;23260;-80
2024/01/08 05:22:23;;;;;;;51.70;24.40;;;;;;;-8.36;100.00;99602.42;134604;1278;22785;-79
2024/01/08 05:25:25;;;;;;;45.00;21.30;;;;;;;-8.37;100.00;99601.46;134564;1257;23103;-80
2024/01/08 05:28:28;;;;;;;46.60;19.10;;;;;;;-8.39;100.00;99604.36;135127;1278;22595;-81
2024/01/08 05:31:30;;;;;;;30.10;14.10;;;;;;;-8.39;100.00;99608.77;135330;1278;25380;-82
2024/01/08 05:34:33;;;;;;;24.60;12.30;;;;;;;-8.43;100.00;99611.06;135959;1278;22693;-81
2024/01/08 05:37:35;;;;;;;24.70;11.90;;;;;;;-8.43;100.00;99613.39;135693;1278;22594;-81
2024/01/08 05:40:38;;;;;;;26.40;12.90;;;;;;;-8.48;100.00;99615.74;136227;1278;22624;-81
2024/01/08 05:43:40;;;;;;;32.80;14.90;;;;;;;-8.46;100.00;99619.83;136125;1278;23186;-80
2024/01/08 05:46:43;;;;;;;29.60;14.00;;;;;;;-8.39;100.00;99623.92;136193;1278;22204;-80
2024/01/08 05:49:46;;;;;;;28.90;12.70;;;;;;;-8.38;100.00;99629.09;136595;1278;22637;-79
2024/01/08 05:52:48;;;;;;;35.60;12.70;;;;;;;-8.32;100.00;99629.91;136461;1278;22627;-80
2024/01/08 05:55:51;;;;;;;32.60;13.70;;;;;;;-8.37;100.00;99631.38;136138;1278;22685;-80
2024/01/08 05:58:54;;;;;;;29.50;13.80;;;;;;;-8.41;100.00;99635.37;136613;1257;22983;-80
2024/01/08 06:01:56;;;;;;;34.30;13.80;;;;;;;-8.43;100.00;99638.71;136216;1278;22677;-80
2024/01/08 06:04:59;;;;;;;32.40;13.80;;;;;;;-8.40;100.00;99640.88;134805;1257;22920;-80
2024/01/08 06:08:01;;;;;;;62.40;26.40;;;;;;;-8.32;100.00;99644.46;134608;1278;22604;-78
2024/01/08 06:11:04;;;;;;;31.80;14.80;;;;;;;-8.26;100.00;99651.80;134134;1273;23205;-77
2024/01/08 06:14:07;;;;;;;24.80;12.40;;;;;;;-8.29;100.00;99657.53;134243;1268;22633;-77
2024/01/08 06:17:10;;;;;;;22.50;12.90;;;;;;;-8.34;100.00;99656.64;134162;1279;24179;-76
2024/01/08 06:20:12;;;;;;;25.40;12.20;;;;;;;-8.30;100.00;99658.19;134147;1278;24199;-76
2024/01/08 06:23:15;;;;;;;27.40;12.80;;;;;;;-8.24;100.00;99666.83;134224;1278;22572;-75
2024/01/08 06:26:17;;;;;;;25.40;13.50;;;;;;;-8.26;100.00;99669.18;134284;1278;22600;-76
2024/01/08 06:29:20;;;;;;;32.80;14.40;;;;;;;-8.33;100.00;99674.29;134360;1278;24189;-74
2024/01/08 06:32:22;;;;;;;29.90;13.20;;;;;;;-8.41;100.00;99680.50;134318;1278;22692;-76
2024/01/08 06:35:26;;;;;;;25.80;12.00;;;;;;;-8.43;100.00;99686.16;134375;1278;25517;-75
2024/01/08 06:38:28;;;;;;;30.00;15.40;;;;;;;-8.41;100.00;99687.20;134529;1278;24321;-75
2024/01/08 06:41:31;;;;;;;30.90;13.30;;;;;;;-8.46;100.00;99689.11;134495;1278;23200;-76
2024/01/08 06:44:33;;;;;;;29.00;14.30;;;;;;;-8.45;100.00;99690.69;134338;1278;22665;-77
2024/01/08 06:47:36;;;;;;;25.90;12.10;;;;;;;-8.45;100.00;99691.04;134423;1278;22614;-77
2024/01/08 06:50:40;;;;;;;25.90;12.20;;;;;;;-8.44;100.00;99694.20;134441;1278;22636;-76
2024/01/08 06:53:42;;;;;;;32.70;13.50;;;;;;;-8.35;100.00;99697.34;134525;1278;22550;-77
2024/01/08 06:56:45;;;;;;;27.80;13.60;;;;;;;-8.38;100.00;99703.53;134373;1260;22716;-76
2024/01/08 06:59:47;;;;;;;32.30;13.90;;;;;;;-8.50;100.00;99705.36;134527;1278;23136;-76
2024/01/08 07:02:52;;;;;;;27.00;12.40;;;;;;;-8.57;100.00;99708.39;134386;1257;23464;-76
2024/01/08 07:05:55;;;;;;;24.70;13.10;;;;;;;-8.59;100.00;99719.16;134422;1278;22736;-76
2024/01/08 07:08:57;;;;;;;31.80;14.90;;;;;;;-8.55;100.00;99718.48;134530;1278;22841;-76
2024/01/08 07:12:00;;;;;;;30.00;14.50;;;;;;;-8.54;100.00;99733.11;134575;1278;22699;-76
2024/01/08 07:15:02;;;;;;;33.30;15.40;;;;;;;-8.54;100.00;99739.36;134662;1278;22605;-77
2024/01/08 07:18:05;;;;;;;30.30;14.00;;;;;;;-8.60;100.00;99746.02;134653;1278;22572;-78
2024/01/08 07:21:09;;;;;;;41.80;16.60;;;;;;;-8.57;100.00;99749.73;134635;1278;22819;-76
2024/01/08 07:24:12;;;;;;;35.20;14.50;;;;;;;-8.60;100.00;99754.36;134615;1278;23010;-76
2024/01/08 07:27:14;;;;;;;41.00;17.10;;;;;;;-8.60;100.00;99759.52;134628;1278;22624;-77
2024/01/08 07:30:17;;;;;;;42.10;17.20;;;;;;;-8.65;100.00;99765.42;134646;1278;25085;-76
2024/01/08 07:33:19;;;;;;;46.30;18.10;;;;;;;-8.66;100.00;99768.39;134756;1278;23352;-77
2024/01/08 07:36:22;;;;;;;56.20;22.50;;;;;;;-8.65;100.00;99771.41;134571;1278;23145;-75
2024/01/08 07:39:24;;;;;;;41.80;18.10;;;;;;;-8.56;100.00;99777.64;134508;1278;25593;-76
2024/01/08 07:42:27;;;;;;;46.60;22.30;;;;;;;-8.51;100.00;99784.80;134453;1278;22602;-75
2024/01/08 07:45:29;;;;;;;41.50;19.70;;;;;;;-8.44;100.00;99781.63;134546;1278;22662;-75
2024/01/08 07:48:31;;;;;;;29.70;14.60;;;;;;;-8.33;100.00;99792.96;134830;1278;22601;-76
2024/01/08 07:51:35;;;;;;;57.70;26.00;;;;;;;-8.23;100.00;99793.80;134978;1278;22790;-75
2024/01/08 07:54:37;;;;;;;32.80;16.80;;;;;;;-8.14;100.00;99799.36;134510;1278;22659;-75
2024/01/08 07:57:40;;;;;;;30.00;14.00;;;;;;;-8.07;100.00;99804.29;134461;1278;25540;-75
2024/01/08 08:00:42;;;;;;;39.10;17.70;;;;;;;-8.01;100.00;99799.67;134586;1278;24196;-76
2024/01/08 08:03:45;;;;;;;32.00;14.50;;;;;;;-7.98;100.00;99801.44;134471;1278;26556;-75
2024/01/08 08:06:47;;;;;;;32.60;14.30;;;;;;;-7.97;100.00;99807.64;134433;1273;22772;-75
2024/01/08 08:09:50;;;;;;;28.40;14.10;;;;;;;-7.91;100.00;99809.13;134719;1278;22637;-75
2024/01/08 08:12:53;;;;;;;41.10;17.90;;;;;;;-7.82;100.00;99819.46;134596;1267;22852;-74
2024/01/08 08:15:56;;;;;;;26.70;13.40;;;;;;;-7.82;100.00;99820.13;134620;1278;22589;-76
2024/01/08 08:18:58;;;;;;;36.70;17.50;;;;;;;-7.83;100.00;99826.83;134462;1276;23049;-76
2024/01/08 08:22:00;;;;;;;31.90;14.20;;;;;;;-7.83;100.00;99828.71;134482;1278;22745;-76
2024/01/08 08:25:03;;;;;;;40.80;21.10;;;;;;;-7.78;100.00;99829.91;134626;1278;26451;-74
2024/01/08 08:28:05;;;;;;;27.60;14.90;;;;;;;-7.77;100.00;99830.71;134675;1278;22837;-75
2024/01/08 08:31:08;;;;;;;40.10;24.80;;;;;;;-7.81;100.00;99836.20;134713;1278;22821;-76
2024/01/08 08:34:10;;;;;;;27.10;14.60;;;;;;;-7.85;100.00;99839.31;134632;1278;22684;-75
2024/01/08 08:37:14;;;;;;;26.40;14.30;;;;;;;-7.86;100.00;99841.88;134554;1278;22781;-75
2024/01/08 08:40:16;;;;;;;29.90;14.70;;;;;;;-7.91;100.00;99843.45;134463;1278;22686;-74
2024/01/08 08:43:18;;;;;;;26.10;14.20;;;;;;;-7.99;100.00;99849.41;134483;1278;22656;-75
2024/01/08 08:46:21;;;;;;;28.50;15.20;;;;;;;-7.87;100.00;99854.42;134444;1278;23208;-75
2024/01/08 08:49:24;;;;;;;40.30;20.50;;;;;;;-4.75;100.00;99833.85;134404;1278;22597;-75
2024/01/08 08:52:28;;;;;;;25.80;14.70;;;;;;;-5.14;100.00;99851.77;134322;1278;22663;-74
2024/01/08 08:55:31;;;;;;;25.70;13.90;;;;;;;-6.05;100.00;99859.46;134324;1278;22891;-77
2024/01/08 08:58:33;;;;;;;27.60;14.20;;;;;;;-6.67;100.00;99870.30;134537;1278;22640;-77
2024/01/08 09:01:36;;;;;;;25.50;13.80;;;;;;;-7.05;100.00;99869.13;134607;1278;22793;-78
2024/01/08 09:04:38;;;;;;;27.90;15.30;;;;;;;-7.24;100.00;99874.55;134477;1278;22637;-75
2024/01/08 09:07:41;;;;;;;32.40;15.30;;;;;;;-7.33;100.00;99880.79;134480;1278;26626;-75
2024/01/08 09:10:43;;;;;;;27.10;13.70;;;;;;;-7.48;100.00;99881.80;134318;1267;25135;-76
2024/01/08 09:13:46;;;;;;;29.20;15.30;;;;;;;-7.45;100.00;99886.52;134638;1278;22841;-78
2024/01/08 09:16:49;;;;;;;28.30;14.60;;;;;;;-7.49;100.00;99886.80;134503;1267;22624;-77
2024/01/08 09:19:52;;;;;;;39.60;19.00;;;;;;;-7.46;100.00;99892.66;134772;1278;22582;-78
2024/01/08 09:22:55;;;;;;;53.60;23.30;;;;;;;-7.44;100.00;99898.34;134660;1278;23337;-77
2024/01/08 09:25:59;;;;;;;27.20;15.60;;;;;;;-7.50;100.00;99901.91;134605;1278;22770;-74
2024/01/08 09:29:01;;;;;;;24.40;14.80;;;;;;;-7.41;100.00;99897.47;134597;1278;23350;-77
2024/01/08 09:32:04;;;;;;;23.30;14.00;;;;;;;-7.37;100.00;99899.63;134685;1278;23142;-77
2024/01/08 09:35:06;;;;;;;32.30;16.20;;;;;;;-7.33;100.00;99901.77;134619;1278;23213;-76
2024/01/08 09:38:09;;;;;;;27.90;13.30;;;;;;;-7.19;100.00;99895.05;134644;1278;25558;-77
2024/01/08 09:41:12;;;;;;;26.60;14.30;;;;;;;-7.04;100.00;99892.59;134636;1278;22701;-77
2024/01/08 09:44:14;;;;;;;25.70;14.60;;;;;;;-6.84;100.00;99896.75;134729;1278;22568;-77
2024/01/08 09:47:17;;;;;;;26.80;13.70;;;;;;;-6.70;100.00;99904.81;134663;1278;25991;-77
2024/01/08 09:50:19;;;;;;;25.00;13.20;;;;;;;-6.78;100.00;99907.58;134479;1278;25530;-75
2024/01/08 09:53:22;;;;;;;35.40;16.30;;;;;;;-6.93;100.00;99904.66;134494;1278;25553;-75
2024/01/08 09:56:25;;;;;;;25.10;13.80;;;;;;;-6.83;100.00;99901.39;134396;1278;22761;-74
2024/01/08 09:59:27;;;;;;;29.10;14.50;;;;;;;-6.74;100.00;99905.65;134346;1278;22701;-74
2024/01/08 10:02:30;;;;;;;25.70;14.80;;;;;;;-6.60;100.00;99905.45;134392;1278;22640;-74
2024/01/08 10:05:32;;;;;;;25.80;13.30;;;;;;;-6.43;100.00;99902.38;134614;1278;26133;-75
2024/01/08 10:08:35;;;;;;;51.10;42.40;;;;;;;-6.32;100.00;99905.60;134626;1278;22546;-75
2024/01/08 10:11:37;;;;;;;29.90;14.00;;;;;;;-6.35;100.00;99909.47;134528;1278;22599;-76
2024/01/08 10:14:39;;;;;;;22.90;13.20;;;;;;;-6.37;100.00;99910.99;134547;1278;22613;-77
2024/01/08 10:17:42;;;;;;;24.10;13.60;;;;;;;-6.26;100.00;99908.33;134622;1278;183649;-76
2024/01/08 10:20:45;;;;;;;36.50;19.00;;;;;;;-6.29;86.04;99908.25;134724;1278;22638;-75
2024/01/08 10:23:48;;;;;;;26.00;14.00;;;;;;;-6.38;65.34;99917.73;134755;1264;22566;-76
2024/01/08 10:26:50;;;;;;;26.20;14.10;;;;;;;-6.37;65.14;99921.37;134626;1278;22838;-75
2024/01/08 10:29:53;;;;;;;25.70;14.20;;;;;;;-6.39;65.17;99921.73;134580;1278;22701;-76
2024/01/08 10:32:55;;;;;;;25.00;14.20;;;;;;;-6.26;66.48;99919.98;134580;1278;24387;-76
2024/01/08 10:35:57;;;;;;;46.00;26.80;;;;;;;-6.10;66.03;99922.23;134767;1275;22559;-76
2024/01/08 10:39:00;;;;;;;72.40;26.30;;;;;;;-5.99;65.94;99922.45;134687;1278;24160;-76
2024/01/08 10:42:03;;;;;;;25.30;14.00;;;;;;;-5.95;64.40;99930.59;134600;1276;22633;-75
2024/01/08 10:45:05;;;;;;;26.10;13.80;;;;;;;-6.18;63.73;99932.48;134561;1278;22654;-75
2024/01/08 10:48:08;;;;;;;27.70;15.10;;;;;;;-6.42;63.97;99940.92;134472;1278;22605;-77
2024/01/08 10:51:11;;;;;;;37.00;16.20;;;;;;;-6.51;64.68;99937.63;134445;1278;23487;-77
2024/01/08 10:54:14;;;;;;;28.10;14.60;;;;;;;-6.43;65.81;99935.55;134464;1272;22917;-75
2024/01/08 10:57:16;;;;;;;34.70;18.10;;;;;;;-6.34;65.60;99930.92;134340;1278;23331;-74
2024/01/08 11:00:19;;;;;;;39.50;17.00;;;;;;;-6.29;65.02;99930.22;134328;1278;25443;-75
2024/01/08 11:03:24;;;;;;;31.50;16.80;;;;;;;-6.32;64.94;99930.98;134360;1278;22552;-75
2024/01/08 11:06:28;;;;;;;34.90;17.90;;;;;;;-6.20;65.14;99931.29;134503;1278;22800;-76
2024/01/08 11:09:31;;;;;;;26.20;13.80;;;;;;;-6.15;64.71;99935.00;134541;1278;22627;-75
2024/01/08 11:12:33;;;;;;;32.10;14.10;;;;;;;-6.08;65.06;99933.61;134394;1278;22724;-75
2024/01/08 11:15:36;;;;;;;26.80;14.20;;;;;;;-6.07;64.38;99930.66;134229;1278;22761;-75
2024/01/08 11:18:38;;;;;;;27.00;14.80;;;;;;;-6.02;64.67;99934.34;134214;1278;26427;-72
2024/01/08 11:21:41;;;;;;;28.30;14.80;;;;;;;-5.99;64.73;99933.61;134082;1278;22775;-75
2024/01/08 11:24:43;;;;;;;29.00;14.10;;;;;;;-5.94;64.90;99937.67;134159;1278;23062;-75
2024/01/08 11:27:46;;;;;;;25.90;14.90;;;;;;;-6.01;64.18;99940.70;134208;1278;24197;-75
2024/01/08 11:30:49;;;;;;;28.20;15.10;;;;;;;-6.07;64.15;99943.16;134374;1278;23429;-77
2024/01/08 11:33:51;;;;;;;24.50;13.60;;;;;;;-6.20;64.04;99949.91;134474;1278;22827;-75
2024/01/08 11:36:54;;;;;;;29.50;14.20;;;;;;;-6.28;63.88;99953.56;134416;1278;23265;-76
2024/01/08 11:39:56;;;;;;;24.90;15.50;;;;;;;-6.36;66.63;99950.73;134601;1255;22946;-76
2024/01/08 11:42:59;;;;;;;30.00;16.20;;;;;;;-6.08;66.96;99946.84;135514;1278;25394;-77
2024/01/08 11:46:02;;;;;;;30.70;15.80;;;;;;;-6.22;64.45;99948.50;135599;1278;24330;-75
2024/01/08 11:49:05;;;;;;;48.80;22.20;;;;;;;-6.41;64.43;99956.86;135123;1272;22553;-77
2024/01/08 11:52:08;;;;;;;41.70;19.00;;;;;;;-6.56;64.97;99955.30;134852;1278;22575;-78
2024/01/08 11:55:10;;;;;;;29.00;16.30;;;;;;;-6.62;65.30;99950.87;134433;1278;22565;-78
2024/01/08 11:58:13;;;;;;;29.10;16.80;;;;;;;-6.58;65.83;99952.52;134499;1278;22710;-77
2024/01/08 12:01:16;;;;;;;53.10;23.20;;;;;;;-6.52;65.22;99955.00;134531;1278;23224;-77
2024/01/08 12:04:18;;;;;;;71.00;29.70;;;;;;;-6.55;65.26;99950.11;134475;1278;22799;-78
2024/01/08 12:07:21;;;;;;;37.10;18.70;;;;;;;-6.63;65.03;99946.48;134421;1278;26393;-77
2024/01/08 12:10:24;;;;;;;29.80;15.30;;;;;;;-6.66;65.15;99949.89;134576;1278;26081;-77
2024/01/08 12:13:26;;;;;;;36.50;19.00;;;;;;;-6.62;65.61;99951.98;134636;1278;22572;-77
2024/01/08 12:16:29;;;;;;;46.20;20.80;;;;;;;-6.55;66.41;99950.67;134483;1278;25289;-77
2024/01/08 12:19:31;;;;;;;32.70;15.40;;;;;;;-6.14;77.85;99949.82;134664;1278;23360;-78
2024/01/08 12:22:34;;;;;;;25.10;14.30;;;;;;;-5.52;68.65;99955.82;134417;1267;25388;-78
2024/01/08 12:25:37;;;;;;;33.30;15.10;;;;;;;-5.63;68.40;99956.58;134336;1278;22640;-75
2024/01/08 12:28:42;;;;;;;28.40;15.40;;;;;;;-5.65;65.36;99960.08;134215;1278;22653;-77
2024/01/08 12:31:44;;;;;;;33.40;18.60;;;;;;;-5.86;64.55;99963.79;134322;1278;24247;-77
2024/01/08 12:34:47;;;;;;;24.40;13.60;;;;;;;-5.98;64.23;99971.67;134324;1278;22688;-76
2024/01/08 12:37:50;;;;;;;27.30;16.40;;;;;;;-6.12;63.65;99976.27;134270;1278;24257;-77
2024/01/08 12:40:53;;;;;;;33.10;15.80;;;;;;;-6.23;64.21;99977.10;134126;1278;22684;-77
2024/01/08 12:43:55;;;;;;;28.90;17.10;;;;;;;-6.30;64.35;99972.34;134177;1278;22660;-76
2024/01/08 12:46:58;;;;;;;30.10;15.70;;;;;;;-6.35;64.12;99976.45;134276;1278;25138;-77
2024/01/08 12:50:00;;;;;;;32.80;17.20;;;;;;;-6.39;64.38;99977.42;134218;1278;22656;-77
2024/01/08 12:53:03;;;;;;;31.20;17.20;;;;;;;-6.37;65.23;99978.42;134206;1266;23403;-75
2024/01/08 12:56:05;;;;;;;26.10;14.40;;;;;;;-6.32;64.80;99983.02;134417;1278;24037;-75
2024/01/08 12:59:08;;;;;;;38.50;20.90;;;;;;;-6.30;64.92;99988.07;134321;1278;22565;-76
2024/01/08 13:02:11;;;;;;;36.60;15.40;;;;;;;-6.26;64.64;99994.75;134221;1278;24186;-77
2024/01/08 13:05:13;;;;;;;36.20;16.10;;;;;;;-6.31;64.11;100002.06;134177;1278;22892;-77
2024/01/08 13:08:16;;;;;;;40.90;17.90;;;;;;;-6.35;64.78;100005.05;134213;1278;22620;-75
2024/01/08 13:11:19;;;;;;;38.60;17.00;;;;;;;-6.37;64.16;100003.02;134285;1278;23581;-75
2024/01/08 13:14:22;;;;;;;53.60;25.40;;;;;;;-6.42;64.36;100009.16;134222;1278;22542;-75
2024/01/08 13:17:24;;;;;;;30.80;15.10;;;;;;;-6.44;63.76;100015.56;134194;1278;22673;-75
2024/01/08 13:20:28;;;;;;;65.00;32.00;;;;;;;-6.44;64.02;100019.48;134222;1278;23054;-75
2024/01/08 13:23:31;;;;;;;50.80;25.80;;;;;;;-6.40;64.61;100023.41;134204;1278;22782;-75
2024/01/08 13:26:33;;;;;;;73.30;38.40;;;;;;;-6.36;64.43;100027.17;134302;1278;22685;-75
2024/01/08 13:29:37;;;;;;;31.60;17.20;;;;;;;-6.32;64.71;100027.73;134323;1256;22565;-75
2024/01/08 13:32:39;;;;;;;40.20;19.30;;;;;;;-6.37;64.27;100039.95;134512;1278;22631;-75
2024/01/08 13:35:42;;;;;;;66.30;32.20;;;;;;;-6.47;64.67;100047.98;134828;1278;26415;-75
2024/01/08 13:38:44;;;;;;;31.40;15.80;;;;;;;-6.52;64.73;100046.11;135553;1278;22840;-76
2024/01/08 13:41:46;;;;;;;37.80;16.10;;;;;;;-6.59;64.80;100047.32;135441;1278;22892;-75